sensor_id;sensor_type;location;lat;lon;timestamp;P1;durP1;ratioP1;P2;durP2;ratioP2
28003;SDS011;15330;51.234;6.754;2024-01-07T00:00:16;51.72;;;23.08;;
28003;SDS011;15330;51.234;6.754;2024-01-07T00:02:42;46.15;;;20.30;;
28003;SDS011;15330;51.234;6.754;2024-01-07T00:05:07;45.60;;;21.30;;
28003;SDS011;15330;51.234;6.754;2024-01-07T00:07:33;42.55;;;21.02;;
28003;SDS011;15330;51.234;6.754;2024-01-07T00:09:58;46.65;;;20.50;;
28003;SDS011;15330;51.234;6.754;2024-01-07T00:12:23;47.67;;;21.67;;
28003;SDS011;15330;51.234;6.754;2024-01-07T00:14:50;46.75;;;21.50;;
28003;SDS011;15330;51.234;6.754;2024-01-07T00:17:15;53.50;;;22.92;;
28003;SDS011;15330;51.234;6.754;2024-01-07T00:19:41;48.13;;;21.98;;
28003;SDS011;15330;51.234;6.754;2024-01-07T00:22:06;48.47;;;22.25;;
28003;SDS011;15330;51.234;6.754;2024-01-07T00:24:32;52.25;;;22.02;;
28003;SDS011;15330;51.234;6.754;2024-01-07T00:26:57;53.80;;;23.00;;
28003;SDS011;15330;51.234;6.754;2024-01-07T00:29:23;53.47;;;23.20;;
28003;SDS011;15330;51.234;6.754;2024-01-07T00:31:48;47.78;;;23.17;;
28003;SDS011;15330;51.234;6.754;2024-01-07T00:34:14;48.97;;;22.45;;
28003;SDS011;15330;51.234;6.754;2024-01-07T00:36:39;47.78;;;24.25;;
28003;SDS011;15330;51.234;6.754;2024-01-07T00:39:05;55.15;;;25.23;;
28003;SDS011;15330;51.234;6.754;2024-01-07T00:41:31;54.67;;;24.98;;
28003;SDS011;15330;51.234;6.754;2024-01-07T00:43:56;53.80;;;24.60;;
28003;SDS011;15330;51.234;6.754;2024-01-07T00:46:21;50.70;;;24.90;;
28003;SDS011;15330;51.234;6.754;2024-01-07T00:48:47;53.92;;;25.70;;
28003;SDS011;15330;51.234;6.754;2024-01-07T00:51:12;57.67;;;26.15;;
28003;SDS011;15330;51.234;6.754;2024-01-07T00:53:38;56.10;;;26.45;;
28003;SDS011;15330;51.234;6.754;2024-01-07T00:56:03;52.30;;;23.90;;
28003;SDS011;15330;51.234;6.754;2024-01-07T00:58:29;54.92;;;25.15;;
28003;SDS011;15330;51.234;6.754;2024-01-07T01:00:54;46.05;;;22.27;;
28003;SDS011;15330;51.234;6.754;2024-01-07T01:03:20;52.08;;;24.60;;
28003;SDS011;15330;51.234;6.754;2024-01-07T01:05:45;46.25;;;22.60;;
28003;SDS011;15330;51.234;6.754;2024-01-07T01:08:11;49.95;;;23.58;;
28003;SDS011;15330;51.234;6.754;2024-01-07T01:10:36;47.88;;;24.23;;
28003;SDS011;15330;51.234;6.754;2024-01-07T01:13:02;49.83;;;24.92;;
28003;SDS011;15330;51.234;6.754;2024-01-07T01:15:28;51.97;;;24.98;;
28003;SDS011;15330;51.234;6.754;2024-01-07T01:17:53;48.92;;;23.77;;
28003;SDS011;15330;51.234;6.754;2024-01-07T01:20:18;50.92;;;23.27;;
28003;SDS011;15330;51.234;6.754;2024-01-07T01:22:44;47.38;;;24.00;;
28003;SDS011;15330;51.234;6.754;2024-01-07T01:25:09;43.50;;;22.85;;
28003;SDS011;15330;51.234;6.754;2024-01-07T01:27:35;46.20;;;23.55;;
28003;SDS011;15330;51.234;6.754;2024-01-07T01:30:00;48.38;;;24.27;;
28003;SDS011;15330;51.234;6.754;2024-01-07T01:32:26;50.95;;;24.80;;
28003;SDS011;15330;51.234;6.754;2024-01-07T01:34:51;51.42;;;25.27;;
28003;SDS011;15330;51.234;6.754;2024-01-07T01:37:16;49.75;;;25.17;;
28003;SDS011;15330;51.234;6.754;2024-01-07T01:39:42;54.20;;;26.38;;
28003;SDS011;15330;51.234;6.754;2024-01-07T01:42:07;50.67;;;26.15;;
28003;SDS011;15330;51.234;6.754;2024-01-07T01:44:33;49.08;;;24.02;;
28003;SDS011;15330;51.234;6.754;2024-01-07T01:46:59;46.92;;;24.55;;
28003;SDS011;15330;51.234;6.754;2024-01-07T01:49:25;44.30;;;23.02;;
28003;SDS011;15330;51.234;6.754;2024-01-07T01:51:52;43.80;;;22.90;;
28003;SDS011;15330;51.234;6.754;2024-01-07T01:54:20;40.05;;;21.35;;
28003;SDS011;15330;51.234;6.754;2024-01-07T01:56:47;46.67;;;22.88;;
28003;SDS011;15330;51.234;6.754;2024-01-07T01:59:13;42.67;;;22.08;;
28003;SDS011;15330;51.234;6.754;2024-01-07T02:01:39;39.97;;;21.38;;
28003;SDS011;15330;51.234;6.754;2024-01-07T02:04:05;40.78;;;21.52;;
28003;SDS011;15330;51.234;6.754;2024-01-07T02:06:31;39.30;;;20.90;;
28003;SDS011;15330;51.234;6.754;2024-01-07T02:08:56;44.65;;;20.85;;
28003;SDS011;15330;51.234;6.754;2024-01-07T02:11:22;41.30;;;20.63;;
28003;SDS011;15330;51.234;6.754;2024-01-07T02:13:48;39.70;;;20.55;;
28003;SDS011;15330;51.234;6.754;2024-01-07T02:16:14;38.72;;;19.77;;
28003;SDS011;15330;51.234;6.754;2024-01-07T02:18:40;38.45;;;19.75;;
28003;SDS011;15330;51.234;6.754;2024-01-07T02:21:07;39.15;;;20.13;;
28003;SDS011;15330;51.234;6.754;2024-01-07T02:23:34;40.33;;;19.85;;
28003;SDS011;15330;51.234;6.754;2024-01-07T02:25:59;39.10;;;20.58;;
28003;SDS011;15330;51.234;6.754;2024-01-07T02:28:24;41.63;;;20.65;;
28003;SDS011;15330;51.234;6.754;2024-01-07T02:30:50;43.47;;;21.35;;
28003;SDS011;15330;51.234;6.754;2024-01-07T02:33:15;40.97;;;19.23;;
28003;SDS011;15330;51.234;6.754;2024-01-07T02:35:40;39.22;;;19.20;;
28003;SDS011;15330;51.234;6.754;2024-01-07T02:38:06;43.28;;;21.38;;
28003;SDS011;15330;51.234;6.754;2024-01-07T02:40:31;40.63;;;19.65;;
28003;SDS011;15330;51.234;6.754;2024-01-07T02:42:56;39.85;;;19.45;;
28003;SDS011;15330;51.234;6.754;2024-01-07T02:45:23;40.97;;;20.08;;
28003;SDS011;15330;51.234;6.754;2024-01-07T02:47:48;39.20;;;19.10;;
28003;SDS011;15330;51.234;6.754;2024-01-07T02:50:14;38.50;;;20.48;;
28003;SDS011;15330;51.234;6.754;2024-01-07T02:52:41;41.42;;;19.92;;
28003;SDS011;15330;51.234;6.754;2024-01-07T02:55:06;38.08;;;19.65;;
28003;SDS011;15330;51.234;6.754;2024-01-07T02:57:32;41.58;;;20.83;;
28003;SDS011;15330;51.234;6.754;2024-01-07T02:59:58;40.70;;;19.85;;
28003;SDS011;15330;51.234;6.754;2024-01-07T03:02:23;42.03;;;19.77;;
28003;SDS011;15330;51.234;6.754;2024-01-07T03:04:48;47.40;;;21.23;;
28003;SDS011;15330;51.234;6.754;2024-01-07T03:07:14;44.13;;;20.25;;
28003;SDS011;15330;51.234;6.754;2024-01-07T03:09:39;43.67;;;20.23;;
28003;SDS011;15330;51.234;6.754;2024-01-07T03:12:05;46.58;;;21.88;;
28003;SDS011;15330;51.234;6.754;2024-01-07T03:14:30;49.55;;;21.65;;
28003;SDS011;15330;51.234;6.754;2024-01-07T03:16:56;43.60;;;21.83;;
28003;SDS011;15330;51.234;6.754;2024-01-07T03:19:21;43.33;;;22.17;;
28003;SDS011;15330;51.234;6.754;2024-01-07T03:21:47;45.63;;;21.98;;
28003;SDS011;15330;51.234;6.754;2024-01-07T03:24:13;51.05;;;23.00;;
28003;SDS011;15330;51.234;6.754;2024-01-07T03:26:39;52.80;;;22.75;;
28003;SDS011;15330;51.234;6.754;2024-01-07T03:29:04;49.17;;;23.85;;
28003;SDS011;15330;51.234;6.754;2024-01-07T03:31:30;54.90;;;23.83;;
28003;SDS011;15330;51.234;6.754;2024-01-07T03:33:55;53.05;;;24.83;;
28003;SDS011;15330;51.234;6.754;2024-01-07T03:36:21;49.30;;;24.27;;
28003;SDS011;15330;51.234;6.754;2024-01-07T03:38:47;54.35;;;24.23;;
28003;SDS011;15330;51.234;6.754;2024-01-07T03:41:18;47.17;;;23.38;;
28003;SDS011;15330;51.234;6.754;2024-01-07T03:43:48;38.33;;;19.52;;
28003;SDS011;15330;51.234;6.754;2024-01-07T03:46:15;45.30;;;22.67;;
28003;SDS011;15330;51.234;6.754;2024-01-07T03:48:41;45.03;;;20.70;;
28003;SDS011;15330;51.234;6.754;2024-01-07T03:51:07;42.58;;;21.40;;
28003;SDS011;15330;51.234;6.754;2024-01-07T03:53:32;43.65;;;21.23;;
28003;SDS011;15330;51.234;6.754;2024-01-07T03:55:58;39.20;;;19.77;;
28003;SDS011;15330;51.234;6.754;2024-01-07T03:58:23;39.70;;;20.13;;
28003;SDS011;15330;51.234;6.754;2024-01-07T04:00:49;38.30;;;20.13;;
28003;SDS011;15330;51.234;6.754;2024-01-07T04:03:14;38.90;;;19.60;;
28003;SDS011;15330;51.234;6.754;2024-01-07T04:05:39;37.42;;;20.02;;
28003;SDS011;15330;51.234;6.754;2024-01-07T04:08:05;38.03;;;19.90;;
28003;SDS011;15330;51.234;6.754;2024-01-07T04:10:31;36.47;;;18.45;;
28003;SDS011;15330;51.234;6.754;2024-01-07T04:12:56;36.75;;;19.83;;
28003;SDS011;15330;51.234;6.754;2024-01-07T04:15:21;36.97;;;18.42;;
28003;SDS011;15330;51.234;6.754;2024-01-07T04:17:47;42.28;;;19.98;;
28003;SDS011;15330;51.234;6.754;2024-01-07T04:20:13;39.20;;;19.85;;
28003;SDS011;15330;51.234;6.754;2024-01-07T04:22:39;40.50;;;20.73;;
28003;SDS011;15330;51.234;6.754;2024-01-07T04:25:04;37.72;;;18.52;;
28003;SDS011;15330;51.234;6.754;2024-01-07T04:27:36;42.40;;;20.67;;
28003;SDS011;15330;51.234;6.754;2024-01-07T04:30:03;40.13;;;20.48;;
28003;SDS011;15330;51.234;6.754;2024-01-07T04:32:29;38.90;;;19.65;;
28003;SDS011;15330;51.234;6.754;2024-01-07T04:34:55;44.83;;;22.25;;
28003;SDS011;15330;51.234;6.754;2024-01-07T04:37:22;40.53;;;20.42;;
28003;SDS011;15330;51.234;6.754;2024-01-07T04:39:47;42.95;;;22.38;;
28003;SDS011;15330;51.234;6.754;2024-01-07T04:42:13;40.28;;;21.58;;
28003;SDS011;15330;51.234;6.754;2024-01-07T04:44:38;40.88;;;20.83;;
28003;SDS011;15330;51.234;6.754;2024-01-07T04:47:03;41.80;;;21.30;;
28003;SDS011;15330;51.234;6.754;2024-01-07T04:49:29;40.15;;;21.98;;
28003;SDS011;15330;51.234;6.754;2024-01-07T04:51:54;38.50;;;21.15;;
28003;SDS011;15330;51.234;6.754;2024-01-07T04:54:19;41.17;;;22.88;;
28003;SDS011;15330;51.234;6.754;2024-01-07T04:56:45;43.65;;;22.92;;
28003;SDS011;15330;51.234;6.754;2024-01-07T04:59:10;42.55;;;23.25;;
28003;SDS011;15330;51.234;6.754;2024-01-07T05:01:36;40.60;;;22.58;;
28003;SDS011;15330;51.234;6.754;2024-01-07T05:04:01;43.67;;;22.83;;
28003;SDS011;15330;51.234;6.754;2024-01-07T05:06:27;43.45;;;23.45;;
28003;SDS011;15330;51.234;6.754;2024-01-07T05:08:52;38.90;;;21.60;;
28003;SDS011;15330;51.234;6.754;2024-01-07T05:11:18;43.22;;;21.80;;
28003;SDS011;15330;51.234;6.754;2024-01-07T05:13:43;42.67;;;21.08;;
28003;SDS011;15330;51.234;6.754;2024-01-07T05:16:08;38.35;;;20.75;;
28003;SDS011;15330;51.234;6.754;2024-01-07T05:18:34;34.53;;;20.80;;
28003;SDS011;15330;51.234;6.754;2024-01-07T05:20:59;38.55;;;21.17;;
28003;SDS011;15330;51.234;6.754;2024-01-07T05:23:25;41.85;;;23.13;;
28003;SDS011;15330;51.234;6.754;2024-01-07T05:25:50;40.35;;;22.30;;
28003;SDS011;15330;51.234;6.754;2024-01-07T05:28:15;38.75;;;22.27;;
28003;SDS011;15330;51.234;6.754;2024-01-07T05:30:45;43.28;;;22.45;;
28003;SDS011;15330;51.234;6.754;2024-01-07T05:33:10;40.83;;;21.40;;
28003;SDS011;15330;51.234;6.754;2024-01-07T05:35:35;39.67;;;21.73;;
28003;SDS011;15330;51.234;6.754;2024-01-07T05:38:01;43.08;;;22.05;;
28003;SDS011;15330;51.234;6.754;2024-01-07T05:40:26;38.22;;;20.65;;
28003;SDS011;15330;51.234;6.754;2024-01-07T05:42:52;42.92;;;22.15;;
28003;SDS011;15330;51.234;6.754;2024-01-07T05:45:17;39.80;;;22.38;;
28003;SDS011;15330;51.234;6.754;2024-01-07T05:47:42;37.55;;;21.58;;
28003;SDS011;15330;51.234;6.754;2024-01-07T05:50:08;40.60;;;20.35;;
28003;SDS011;15330;51.234;6.754;2024-01-07T05:52:34;41.70;;;22.02;;
28003;SDS011;15330;51.234;6.754;2024-01-07T05:54:59;40.35;;;21.42;;
28003;SDS011;15330;51.234;6.754;2024-01-07T05:57:25;34.35;;;19.25;;
28003;SDS011;15330;51.234;6.754;2024-01-07T05:59:50;36.50;;;20.60;;
28003;SDS011;15330;51.234;6.754;2024-01-07T06:02:16;39.05;;;19.70;;
28003;SDS011;15330;51.234;6.754;2024-01-07T06:04:42;35.85;;;19.90;;
28003;SDS011;15330;51.234;6.754;2024-01-07T06:07:08;38.45;;;18.85;;
28003;SDS011;15330;51.234;6.754;2024-01-07T06:09:33;35.40;;;19.70;;
28003;SDS011;15330;51.234;6.754;2024-01-07T06:11:59;36.63;;;19.48;;
28003;SDS011;15330;51.234;6.754;2024-01-07T06:14:24;37.92;;;18.30;;
28003;SDS011;15330;51.234;6.754;2024-01-07T06:16:50;42.83;;;21.33;;
28003;SDS011;15330;51.234;6.754;2024-01-07T06:19:16;46.35;;;21.30;;
28003;SDS011;15330;51.234;6.754;2024-01-07T06:21:42;44.95;;;22.25;;
28003;SDS011;15330;51.234;6.754;2024-01-07T06:24:07;41.60;;;21.25;;
28003;SDS011;15330;51.234;6.754;2024-01-07T06:26:33;39.92;;;19.70;;
28003;SDS011;15330;51.234;6.754;2024-01-07T06:28:58;40.10;;;19.17;;
28003;SDS011;15330;51.234;6.754;2024-01-07T06:31:24;47.30;;;22.60;;
28003;SDS011;15330;51.234;6.754;2024-01-07T06:33:50;46.05;;;22.00;;
28003;SDS011;15330;51.234;6.754;2024-01-07T06:36:15;44.85;;;22.40;;
28003;SDS011;15330;51.234;6.754;2024-01-07T06:38:40;38.95;;;19.75;;
28003;SDS011;15330;51.234;6.754;2024-01-07T06:41:06;45.95;;;22.55;;
28003;SDS011;15330;51.234;6.754;2024-01-07T06:43:31;45.72;;;22.73;;
28003;SDS011;15330;51.234;6.754;2024-01-07T06:45:57;43.05;;;22.27;;
28003;SDS011;15330;51.234;6.754;2024-01-07T06:48:22;41.05;;;22.08;;
28003;SDS011;15330;51.234;6.754;2024-01-07T06:50:48;42.42;;;20.65;;
28003;SDS011;15330;51.234;6.754;2024-01-07T06:53:13;42.28;;;21.00;;
28003;SDS011;15330;51.234;6.754;2024-01-07T06:55:39;43.58;;;22.23;;
28003;SDS011;15330;51.234;6.754;2024-01-07T06:58:04;35.28;;;18.65;;
28003;SDS011;15330;51.234;6.754;2024-01-07T07:00:29;37.30;;;19.45;;
28003;SDS011;15330;51.234;6.754;2024-01-07T07:02:55;37.42;;;20.33;;
28003;SDS011;15330;51.234;6.754;2024-01-07T07:05:20;40.45;;;20.27;;
28003;SDS011;15330;51.234;6.754;2024-01-07T07:07:46;43.65;;;21.33;;
28003;SDS011;15330;51.234;6.754;2024-01-07T07:10:11;41.03;;;20.92;;
28003;SDS011;15330;51.234;6.754;2024-01-07T07:12:36;37.28;;;19.83;;
28003;SDS011;15330;51.234;6.754;2024-01-07T07:15:02;36.58;;;19.63;;
28003;SDS011;15330;51.234;6.754;2024-01-07T07:17:27;40.65;;;18.83;;
28003;SDS011;15330;51.234;6.754;2024-01-07T07:19:53;41.17;;;21.02;;
28003;SDS011;15330;51.234;6.754;2024-01-07T07:22:18;37.33;;;20.90;;
28003;SDS011;15330;51.234;6.754;2024-01-07T07:24:43;38.20;;;19.98;;
28003;SDS011;15330;51.234;6.754;2024-01-07T07:27:09;40.60;;;20.65;;
28003;SDS011;15330;51.234;6.754;2024-01-07T07:29:34;38.03;;;20.88;;
28003;SDS011;15330;51.234;6.754;2024-01-07T07:32:00;36.20;;;21.15;;
28003;SDS011;15330;51.234;6.754;2024-01-07T07:34:25;38.70;;;21.30;;
28003;SDS011;15330;51.234;6.754;2024-01-07T07:36:50;42.45;;;21.73;;
28003;SDS011;15330;51.234;6.754;2024-01-07T07:39:16;45.25;;;21.20;;
28003;SDS011;15330;51.234;6.754;2024-01-07T07:41:42;40.30;;;21.83;;
28003;SDS011;15330;51.234;6.754;2024-01-07T07:44:07;41.35;;;22.27;;
28003;SDS011;15330;51.234;6.754;2024-01-07T07:46:33;44.38;;;21.30;;
28003;SDS011;15330;51.234;6.754;2024-01-07T07:48:58;42.47;;;21.38;;
28003;SDS011;15330;51.234;6.754;2024-01-07T07:51:23;40.78;;;22.08;;
28003;SDS011;15330;51.234;6.754;2024-01-07T07:53:49;41.90;;;20.92;;
28003;SDS011;15330;51.234;6.754;2024-01-07T07:56:14;41.88;;;22.25;;
28003;SDS011;15330;51.234;6.754;2024-01-07T07:58:40;49.38;;;23.85;;
28003;SDS011;15330;51.234;6.754;2024-01-07T08:01:05;45.42;;;23.95;;
28003;SDS011;15330;51.234;6.754;2024-01-07T08:03:31;52.17;;;23.65;;
28003;SDS011;15330;51.234;6.754;2024-01-07T08:05:57;48.40;;;23.77;;
28003;SDS011;15330;51.234;6.754;2024-01-07T08:08:23;50.65;;;22.48;;
28003;SDS011;15330;51.234;6.754;2024-01-07T08:10:48;49.15;;;24.10;;
28003;SDS011;15330;51.234;6.754;2024-01-07T08:13:14;51.65;;;22.85;;
28003;SDS011;15330;51.234;6.754;2024-01-07T08:15:39;49.40;;;24.58;;
28003;SDS011;15330;51.234;6.754;2024-01-07T08:18:04;51.28;;;24.73;;
28003;SDS011;15330;51.234;6.754;2024-01-07T08:20:30;43.25;;;21.58;;
28003;SDS011;15330;51.234;6.754;2024-01-07T08:22:55;52.42;;;24.20;;
28003;SDS011;15330;51.234;6.754;2024-01-07T08:25:21;50.25;;;24.05;;
28003;SDS011;15330;51.234;6.754;2024-01-07T08:27:47;48.85;;;23.08;;
28003;SDS011;15330;51.234;6.754;2024-01-07T08:30:13;51.17;;;24.52;;
28003;SDS011;15330;51.234;6.754;2024-01-07T08:32:39;52.40;;;25.23;;
28003;SDS011;15330;51.234;6.754;2024-01-07T08:35:05;48.92;;;23.42;;
28003;SDS011;15330;51.234;6.754;2024-01-07T08:37:30;48.85;;;23.50;;
28003;SDS011;15330;51.234;6.754;2024-01-07T08:39:56;47.08;;;23.35;;
28003;SDS011;15330;51.234;6.754;2024-01-07T08:42:21;47.80;;;23.20;;
28003;SDS011;15330;51.234;6.754;2024-01-07T08:44:46;44.90;;;21.70;;
28003;SDS011;15330;51.234;6.754;2024-01-07T08:47:12;43.33;;;22.60;;
28003;SDS011;15330;51.234;6.754;2024-01-07T08:49:38;37.88;;;21.08;;
28003;SDS011;15330;51.234;6.754;2024-01-07T08:52:04;38.10;;;20.10;;
28003;SDS011;15330;51.234;6.754;2024-01-07T08:54:30;35.45;;;18.80;;
28003;SDS011;15330;51.234;6.754;2024-01-07T08:56:55;36.50;;;19.05;;
28003;SDS011;15330;51.234;6.754;2024-01-07T08:59:20;31.10;;;18.00;;
28003;SDS011;15330;51.234;6.754;2024-01-07T09:01:46;31.80;;;17.27;;
28003;SDS011;15330;51.234;6.754;2024-01-07T09:04:11;29.85;;;17.67;;
28003;SDS011;15330;51.234;6.754;2024-01-07T09:06:37;36.00;;;18.55;;
28003;SDS011;15330;51.234;6.754;2024-01-07T09:09:02;35.08;;;18.98;;
28003;SDS011;15330;51.234;6.754;2024-01-07T09:11:31;32.33;;;17.63;;
28003;SDS011;15330;51.234;6.754;2024-01-07T09:13:57;28.80;;;16.67;;
28003;SDS011;15330;51.234;6.754;2024-01-07T09:16:22;27.85;;;13.93;;
28003;SDS011;15330;51.234;6.754;2024-01-07T09:18:47;33.00;;;18.65;;
28003;SDS011;15330;51.234;6.754;2024-01-07T09:21:13;31.85;;;17.33;;
28003;SDS011;15330;51.234;6.754;2024-01-07T09:23:39;30.80;;;17.33;;
28003;SDS011;15330;51.234;6.754;2024-01-07T09:26:04;31.98;;;17.75;;
28003;SDS011;15330;51.234;6.754;2024-01-07T09:28:30;26.75;;;15.38;;
28003;SDS011;15330;51.234;6.754;2024-01-07T09:30:58;39.03;;;17.17;;
28003;SDS011;15330;51.234;6.754;2024-01-07T09:33:23;30.98;;;17.50;;
28003;SDS011;15330;51.234;6.754;2024-01-07T09:35:52;29.45;;;17.20;;
28003;SDS011;15330;51.234;6.754;2024-01-07T09:38:19;29.25;;;16.15;;
28003;SDS011;15330;51.234;6.754;2024-01-07T09:40:44;28.85;;;16.25;;
28003;SDS011;15330;51.234;6.754;2024-01-07T09:43:09;31.98;;;16.85;;
28003;SDS011;15330;51.234;6.754;2024-01-07T09:45:36;29.58;;;16.65;;
28003;SDS011;15330;51.234;6.754;2024-01-07T09:48:07;28.30;;;17.25;;
28003;SDS011;15330;51.234;6.754;2024-01-07T09:50:32;29.98;;;17.00;;
28003;SDS011;15330;51.234;6.754;2024-01-07T09:52:58;29.50;;;16.42;;
28003;SDS011;15330;51.234;6.754;2024-01-07T09:55:29;27.52;;;16.23;;
28003;SDS011;15330;51.234;6.754;2024-01-07T09:57:58;30.73;;;16.92;;
28003;SDS011;15330;51.234;6.754;2024-01-07T10:00:25;31.23;;;17.70;;
28003;SDS011;15330;51.234;6.754;2024-01-07T10:02:54;31.40;;;17.20;;
28003;SDS011;15330;51.234;6.754;2024-01-07T10:05:20;33.95;;;17.02;;
28003;SDS011;15330;51.234;6.754;2024-01-07T10:07:45;27.55;;;15.05;;
28003;SDS011;15330;51.234;6.754;2024-01-07T10:10:12;28.80;;;17.42;;
28003;SDS011;15330;51.234;6.754;2024-01-07T10:12:43;32.85;;;17.45;;
28003;SDS011;15330;51.234;6.754;2024-01-07T10:15:10;33.58;;;19.23;;
28003;SDS011;15330;51.234;6.754;2024-01-07T10:17:35;30.60;;;16.88;;
28003;SDS011;15330;51.234;6.754;2024-01-07T10:20:01;31.88;;;18.50;;
28003;SDS011;15330;51.234;6.754;2024-01-07T10:22:26;36.53;;;18.02;;
28003;SDS011;15330;51.234;6.754;2024-01-07T10:24:52;30.95;;;18.60;;
28003;SDS011;15330;51.234;6.754;2024-01-07T10:27:17;35.88;;;19.13;;
28003;SDS011;15330;51.234;6.754;2024-01-07T10:29:43;33.67;;;18.70;;
28003;SDS011;15330;51.234;6.754;2024-01-07T10:32:08;31.58;;;18.10;;
28003;SDS011;15330;51.234;6.754;2024-01-07T10:34:35;33.03;;;18.33;;
28003;SDS011;15330;51.234;6.754;2024-01-07T10:37:02;33.30;;;19.00;;
28003;SDS011;15330;51.234;6.754;2024-01-07T10:39:29;32.88;;;18.80;;
28003;SDS011;15330;51.234;6.754;2024-01-07T10:41:56;30.83;;;18.00;;
28003;SDS011;15330;51.234;6.754;2024-01-07T10:44:25;29.90;;;18.38;;
28003;SDS011;15330;51.234;6.754;2024-01-07T10:46:55;28.45;;;18.05;;
28003;SDS011;15330;51.234;6.754;2024-01-07T10:49:21;29.30;;;17.85;;
28003;SDS011;15330;51.234;6.754;2024-01-07T10:52:12;25.13;;;15.48;;
28003;SDS011;15330;51.234;6.754;2024-01-07T10:54:36;29.38;;;15.95;;
28003;SDS011;15330;51.234;6.754;2024-01-07T10:59:40;24.30;;;15.20;;
28003;SDS011;15330;51.234;6.754;2024-01-07T11:02:07;27.70;;;15.90;;
28003;SDS011;15330;51.234;6.754;2024-01-07T11:07:28;27.90;;;16.23;;
28003;SDS011;15330;51.234;6.754;2024-01-07T11:10:25;24.17;;;14.52;;
28003;SDS011;15330;51.234;6.754;2024-01-07T11:12:56;22.13;;;14.00;;
28003;SDS011;15330;51.234;6.754;2024-01-07T11:18:17;25.00;;;14.55;;
28003;SDS011;15330;51.234;6.754;2024-01-07T11:20:44;23.65;;;13.60;;
28003;SDS011;15330;51.234;6.754;2024-01-07T11:26:01;24.27;;;13.90;;
28003;SDS011;15330;51.234;6.754;2024-01-07T11:31:15;24.25;;;12.50;;
28003;SDS011;15330;51.234;6.754;2024-01-07T11:33:43;20.73;;;11.50;;
28003;SDS011;15330;51.234;6.754;2024-01-07T11:36:12;26.52;;;12.68;;
28003;SDS011;15330;51.234;6.754;2024-01-07T11:38:45;20.95;;;12.48;;
28003;SDS011;15330;51.234;6.754;2024-01-07T11:41:13;24.02;;;13.98;;
28003;SDS011;15330;51.234;6.754;2024-01-07T11:43:55;22.05;;;12.80;;
28003;SDS011;15330;51.234;6.754;2024-01-07T11:46:24;26.60;;;15.15;;
28003;SDS011;15330;51.234;6.754;2024-01-07T11:48:50;26.67;;;16.67;;
28003;SDS011;15330;51.234;6.754;2024-01-07T11:51:18;24.23;;;14.90;;
28003;SDS011;15330;51.234;6.754;2024-01-07T11:53:45;28.88;;;15.55;;
28003;SDS011;15330;51.234;6.754;2024-01-07T11:56:13;26.90;;;16.48;;
28003;SDS011;15330;51.234;6.754;2024-01-07T11:58:39;27.30;;;15.52;;
28003;SDS011;15330;51.234;6.754;2024-01-07T12:01:05;23.10;;;15.27;;
28003;SDS011;15330;51.234;6.754;2024-01-07T12:03:31;29.38;;;15.75;;
28003;SDS011;15330;51.234;6.754;2024-01-07T12:05:56;25.25;;;14.20;;
28003;SDS011;15330;51.234;6.754;2024-01-07T12:08:21;24.00;;;13.77;;
28003;SDS011;15330;51.234;6.754;2024-01-07T12:10:47;21.67;;;12.35;;
28003;SDS011;15330;51.234;6.754;2024-01-07T12:13:12;23.35;;;13.00;;
28003;SDS011;15330;51.234;6.754;2024-01-07T12:15:38;20.17;;;12.07;;
28003;SDS011;15330;51.234;6.754;2024-01-07T12:18:04;18.35;;;10.95;;
28003;SDS011;15330;51.234;6.754;2024-01-07T12:20:30;21.73;;;11.43;;
28003;SDS011;15330;51.234;6.754;2024-01-07T12:22:55;20.05;;;11.15;;
28003;SDS011;15330;51.234;6.754;2024-01-07T12:25:30;17.42;;;11.05;;
28003;SDS011;15330;51.234;6.754;2024-01-07T12:27:55;19.98;;;11.85;;
28003;SDS011;15330;51.234;6.754;2024-01-07T12:30:23;15.98;;;10.15;;
28003;SDS011;15330;51.234;6.754;2024-01-07T12:32:51;19.33;;;10.70;;
28003;SDS011;15330;51.234;6.754;2024-01-07T12:35:17;17.23;;;9.80;;
28003;SDS011;15330;51.234;6.754;2024-01-07T12:37:43;15.85;;;10.38;;
28003;SDS011;15330;51.234;6.754;2024-01-07T12:40:09;16.48;;;9.77;;
28003;SDS011;15330;51.234;6.754;2024-01-07T12:42:36;16.08;;;10.18;;
28003;SDS011;15330;51.234;6.754;2024-01-07T12:45:11;17.10;;;9.70;;
28003;SDS011;15330;51.234;6.754;2024-01-07T12:47:41;16.55;;;10.02;;
28003;SDS011;15330;51.234;6.754;2024-01-07T12:50:07;16.27;;;10.27;;
28003;SDS011;15330;51.234;6.754;2024-01-07T12:52:35;13.70;;;8.82;;
28003;SDS011;15330;51.234;6.754;2024-01-07T12:55:02;12.93;;;7.90;;
28003;SDS011;15330;51.234;6.754;2024-01-07T12:57:28;12.68;;;7.32;;
28003;SDS011;15330;51.234;6.754;2024-01-07T12:59:53;13.70;;;7.72;;
28003;SDS011;15330;51.234;6.754;2024-01-07T13:02:19;12.32;;;7.43;;
28003;SDS011;15330;51.234;6.754;2024-01-07T13:04:45;14.20;;;7.82;;
28003;SDS011;15330;51.234;6.754;2024-01-07T13:07:10;13.48;;;7.25;;
28003;SDS011;15330;51.234;6.754;2024-01-07T13:09:36;10.27;;;6.38;;
28003;SDS011;15330;51.234;6.754;2024-01-07T13:12:01;11.57;;;6.00;;
28003;SDS011;15330;51.234;6.754;2024-01-07T13:14:29;10.02;;;6.40;;
28003;SDS011;15330;51.234;6.754;2024-01-07T13:16:54;10.43;;;6.65;;
28003;SDS011;15330;51.234;6.754;2024-01-07T13:19:20;9.25;;;5.50;;
28003;SDS011;15330;51.234;6.754;2024-01-07T13:21:45;11.35;;;6.43;;
28003;SDS011;15330;51.234;6.754;2024-01-07T13:24:11;11.52;;;6.18;;
28003;SDS011;15330;51.234;6.754;2024-01-07T13:26:36;11.10;;;6.70;;
28003;SDS011;15330;51.234;6.754;2024-01-07T13:29:02;11.00;;;6.82;;
28003;SDS011;15330;51.234;6.754;2024-01-07T13:31:28;11.45;;;6.75;;
28003;SDS011;15330;51.234;6.754;2024-01-07T13:33:54;9.98;;;6.05;;
28003;SDS011;15330;51.234;6.754;2024-01-07T13:36:19;9.15;;;6.28;;
28003;SDS011;15330;51.234;6.754;2024-01-07T13:38:45;10.07;;;5.78;;
28003;SDS011;15330;51.234;6.754;2024-01-07T13:41:13;9.75;;;5.88;;
28003;SDS011;15330;51.234;6.754;2024-01-07T13:43:39;7.78;;;5.13;;
28003;SDS011;15330;51.234;6.754;2024-01-07T13:46:05;10.57;;;5.85;;
28003;SDS011;15330;51.234;6.754;2024-01-07T13:48:31;9.65;;;5.72;;
28003;SDS011;15330;51.234;6.754;2024-01-07T13:50:56;14.05;;;6.93;;
28003;SDS011;15330;51.234;6.754;2024-01-07T13:53:23;8.77;;;5.55;;
28003;SDS011;15330;51.234;6.754;2024-01-07T13:55:48;10.32;;;5.85;;
28003;SDS011;15330;51.234;6.754;2024-01-07T13:58:14;8.13;;;5.30;;
28003;SDS011;15330;51.234;6.754;2024-01-07T14:00:40;8.50;;;4.80;;
28003;SDS011;15330;51.234;6.754;2024-01-07T14:03:06;9.18;;;6.10;;
28003;SDS011;15330;51.234;6.754;2024-01-07T14:05:32;9.30;;;5.85;;
28003;SDS011;15330;51.234;6.754;2024-01-07T14:07:58;9.32;;;6.40;;
28003;SDS011;15330;51.234;6.754;2024-01-07T14:10:23;8.60;;;6.05;;
28003;SDS011;15330;51.234;6.754;2024-01-07T14:12:48;8.13;;;5.40;;
28003;SDS011;15330;51.234;6.754;2024-01-07T14:15:14;9.82;;;5.47;;
28003;SDS011;15330;51.234;6.754;2024-01-07T14:17:39;5.13;;;3.08;;
28003;SDS011;15330;51.234;6.754;2024-01-07T14:20:07;10.30;;;4.90;;
28003;SDS011;15330;51.234;6.754;2024-01-07T14:22:33;5.47;;;4.10;;
28003;SDS011;15330;51.234;6.754;2024-01-07T14:24:58;9.30;;;5.68;;
28003;SDS011;15330;51.234;6.754;2024-01-07T14:27:24;7.28;;;5.25;;
28003;SDS011;15330;51.234;6.754;2024-01-07T14:29:49;8.00;;;4.68;;